sensor_id;sensor_type;location;lat;lon;timestamp;temperature;humidity
16198;DHT22;8206;51.440;6.914;2023-08-21T00:00:58;19.50;1.00
16198;DHT22;8206;51.440;6.914;2023-08-21T00:03:25;19.40;1.00
16198;DHT22;8206;51.440;6.914;2023-08-21T00:05:52;19.40;1.00
16198;DHT22;8206;51.440;6.914;2023-08-21T00:08:18;19.40;1.00
16198;DHT22;8206;51.440;6.914;2023-08-21T00:10:45;19.30;1.00
16198;DHT22;8206;51.440;6.914;2023-08-21T00:13:12;19.20;1.00
16198;DHT22;8206;51.440;6.914;2023-08-21T00:15:40;19.20;1.00
16198;DHT22;8206;51.440;6.914;2023-08-21T00:18:07;19.20;1.00
16198;DHT22;8206;51.440;6.914;2023-08-21T00:20:33;19.10;1.00
16198;DHT22;8206;51.440;6.914;2023-08-21T00:23:00;19.10;1.00
16198;DHT22;8206;51.440;6.914;2023-08-21T00:25:27;19.00;1.00
16198;DHT22;8206;51.440;6.914;2023-08-21T00:27:53;19.00;1.00
16198;DHT22;8206;51.440;6.914;2023-08-21T00:30:20;18.90;1.00
16198;DHT22;8206;51.440;6.914;2023-08-21T00:32:48;18.90;1.00
16198;DHT22;8206;51.440;6.914;2023-08-21T00:35:15;18.80;1.00
16198;DHT22;8206;51.440;6.914;2023-08-21T00:37:41;18.70;1.00
16198;DHT22;8206;51.440;6.914;2023-08-21T00:40:09;18.70;1.00
16198;DHT22;8206;51.440;6.914;2023-08-21T00:42:36;18.60;1.00
16198;DHT22;8206;51.440;6.914;2023-08-21T00:45:03;18.60;1.00
16198;DHT22;8206;51.440;6.914;2023-08-21T00:47:30;18.60;1.00
16198;DHT22;8206;51.440;6.914;2023-08-21T00:49:58;18.60;1.00
16198;DHT22;8206;51.440;6.914;2023-08-21T00:52:25;18.50;1.00
16198;DHT22;8206;51.440;6.914;2023-08-21T00:54:52;18.50;1.00
16198;DHT22;8206;51.440;6.914;2023-08-21T00:57:20;18.50;1.00
16198;DHT22;8206;51.440;6.914;2023-08-21T00:59:47;18.50;1.00
16198;DHT22;8206;51.440;6.914;2023-08-21T01:02:14;18.40;1.00
16198;DHT22;8206;51.440;6.914;2023-08-21T01:04:41;18.40;1.00
16198;DHT22;8206;51.440;6.914;2023-08-21T01:07:09;18.40;1.00
16198;DHT22;8206;51.440;6.914;2023-08-21T01:09:41;18.40;1.00
16198;DHT22;8206;51.440;6.914;2023-08-21T01:12:25;18.40;1.00
16198;DHT22;8206;51.440;6.914;2023-08-21T01:14:59;18.40;1.00
16198;DHT22;8206;51.440;6.914;2023-08-21T01:17:26;18.50;1.00
16198;DHT22;8206;51.440;6.914;2023-08-21T01:19:55;18.40;1.00
16198;DHT22;8206;51.440;6.914;2023-08-21T01:22:27;18.40;1.00
16198;DHT22;8206;51.440;6.914;2023-08-21T01:24:55;18.40;1.00
16198;DHT22;8206;51.440;6.914;2023-08-21T01:27:22;18.30;1.00
16198;DHT22;8206;51.440;6.914;2023-08-21T01:29:49;18.30;1.00
16198;DHT22;8206;51.440;6.914;2023-08-21T01:32:21;18.20;1.00
16198;DHT22;8206;51.440;6.914;2023-08-21T01:34:51;18.20;1.00
16198;DHT22;8206;51.440;6.914;2023-08-21T01:37:19;18.20;1.00
16198;DHT22;8206;51.440;6.914;2023-08-21T01:39:46;18.20;1.00
16198;DHT22;8206;51.440;6.914;2023-08-21T01:42:14;18.20;1.00
16198;DHT22;8206;51.440;6.914;2023-08-21T01:44:41;18.10;1.00
16198;DHT22;8206;51.440;6.914;2023-08-21T01:47:11;18.10;1.00
16198;DHT22;8206;51.440;6.914;2023-08-21T01:49:38;18.10;1.00
16198;DHT22;8206;51.440;6.914;2023-08-21T01:52:04;18.10;1.00
16198;DHT22;8206;51.440;6.914;2023-08-21T01:54:31;18.00;1.00
16198;DHT22;8206;51.440;6.914;2023-08-21T01:56:58;18.10;1.00
16198;DHT22;8206;51.440;6.914;2023-08-21T01:59:26;18.10;1.00
16198;DHT22;8206;51.440;6.914;2023-08-21T02:01:52;18.10;1.00
16198;DHT22;8206;51.440;6.914;2023-08-21T02:04:19;18.10;1.00
16198;DHT22;8206;51.440;6.914;2023-08-21T02:06:46;18.10;1.00
16198;DHT22;8206;51.440;6.914;2023-08-21T02:09:13;18.10;1.00
16198;DHT22;8206;51.440;6.914;2023-08-21T02:11:39;18.10;1.00
16198;DHT22;8206;51.440;6.914;2023-08-21T02:14:06;18.10;1.00
16198;DHT22;8206;51.440;6.914;2023-08-21T02:16:34;18.20;1.00
16198;DHT22;8206;51.440;6.914;2023-08-21T02:19:01;18.10;1.00
16198;DHT22;8206;51.440;6.914;2023-08-21T02:21:27;18.20;1.00
16198;DHT22;8206;51.440;6.914;2023-08-21T02:23:54;18.20;1.00
16198;DHT22;8206;51.440;6.914;2023-08-21T02:26:20;18.20;1.00
16198;DHT22;8206;51.440;6.914;2023-08-21T02:28:47;18.20;1.00
16198;DHT22;8206;51.440;6.914;2023-08-21T02:31:14;18.20;1.00
16198;DHT22;8206;51.440;6.914;2023-08-21T02:33:42;18.20;1.00
16198;DHT22;8206;51.440;6.914;2023-08-21T02:36:08;18.10;1.00
16198;DHT22;8206;51.440;6.914;2023-08-21T02:38:35;18.10;1.00
16198;DHT22;8206;51.440;6.914;2023-08-21T02:41:02;18.20;1.00
16198;DHT22;8206;51.440;6.914;2023-08-21T02:43:29;18.10;1.00
16198;DHT22;8206;51.440;6.914;2023-08-21T02:45:55;18.10;1.00
16198;DHT22;8206;51.440;6.914;2023-08-21T02:48:22;18.10;1.00
16198;DHT22;8206;51.440;6.914;2023-08-21T02:50:50;18.10;1.00
16198;DHT22;8206;51.440;6.914;2023-08-21T02:53:16;18.10;1.00
16198;DHT22;8206;51.440;6.914;2023-08-21T02:55:43;18.20;1.00
16198;DHT22;8206;51.440;6.914;2023-08-21T02:58:10;18.10;1.00
16198;DHT22;8206;51.440;6.914;2023-08-21T03:00:37;18.10;1.00
16198;DHT22;8206;51.440;6.914;2023-08-21T03:03:04;18.00;1.00
16198;DHT22;8206;51.440;6.914;2023-08-21T03:05:30;18.00;1.00
16198;DHT22;8206;51.440;6.914;2023-08-21T03:07:58;18.00;1.00
16198;DHT22;8206;51.440;6.914;2023-08-21T03:10:25;18.00;1.00
16198;DHT22;8206;51.440;6.914;2023-08-21T03:12:52;18.10;1.00
16198;DHT22;8206;51.440;6.914;2023-08-21T03:15:19;18.10;1.00
16198;DHT22;8206;51.440;6.914;2023-08-21T03:17:46;18.00;1.00
16198;DHT22;8206;51.440;6.914;2023-08-21T03:20:13;18.00;1.00
16198;DHT22;8206;51.440;6.914;2023-08-21T03:22:40;18.00;1.00
16198;DHT22;8206;51.440;6.914;2023-08-21T03:25:09;17.90;1.00
16198;DHT22;8206;51.440;6.914;2023-08-21T03:27:36;17.90;1.00
16198;DHT22;8206;51.440;6.914;2023-08-21T03:30:06;17.90;1.00
16198;DHT22;8206;51.440;6.914;2023-08-21T03:32:33;17.90;1.00
16198;DHT22;8206;51.440;6.914;2023-08-21T03:35:01;17.90;1.00
16198;DHT22;8206;51.440;6.914;2023-08-21T03:37:28;17.90;1.00
16198;DHT22;8206;51.440;6.914;2023-08-21T03:39:54;17.90;1.00
16198;DHT22;8206;51.440;6.914;2023-08-21T03:42:22;17.90;1.00
16198;DHT22;8206;51.440;6.914;2023-08-21T03:44:49;17.90;1.00
16198;DHT22;8206;51.440;6.914;2023-08-21T03:47:16;17.90;1.00
16198;DHT22;8206;51.440;6.914;2023-08-21T03:49:42;18.00;1.00
16198;DHT22;8206;51.440;6.914;2023-08-21T03:52:09;17.90;1.00
16198;DHT22;8206;51.440;6.914;2023-08-21T03:54:36;17.90;1.00
16198;DHT22;8206;51.440;6.914;2023-08-21T03:57:03;17.90;1.00
16198;DHT22;8206;51.440;6.914;2023-08-21T03:59:31;18.00;99.90
16198;DHT22;8206;51.440;6.914;2023-08-21T04:01:58;18.00;99.90
16198;DHT22;8206;51.440;6.914;2023-08-21T04:04:24;17.90;99.90
16198;DHT22;8206;51.440;6.914;2023-08-21T04:06:51;17.80;99.90
16198;DHT22;8206;51.440;6.914;2023-08-21T04:09:18;17.80;76.20
16198;DHT22;8206;51.440;6.914;2023-08-21T04:11:44;17.80;1.00
16198;DHT22;8206;51.440;6.914;2023-08-21T04:14:11;17.80;1.00
16198;DHT22;8206;51.440;6.914;2023-08-21T04:16:39;17.80;58.60
16198;DHT22;8206;51.440;6.914;2023-08-21T04:19:06;17.90;1.00
16198;DHT22;8206;51.440;6.914;2023-08-21T04:21:32;17.90;43.00
16198;DHT22;8206;51.440;6.914;2023-08-21T04:23:59;17.90;99.90
16198;DHT22;8206;51.440;6.914;2023-08-21T04:26:26;17.90;1.00
16198;DHT22;8206;51.440;6.914;2023-08-21T04:28:52;18.00;1.00
16198;DHT22;8206;51.440;6.914;2023-08-21T04:31:19;18.00;99.90
16198;DHT22;8206;51.440;6.914;2023-08-21T04:33:47;17.90;1.00
16198;DHT22;8206;51.440;6.914;2023-08-21T04:36:15;18.00;1.00
16198;DHT22;8206;51.440;6.914;2023-08-21T04:38:42;18.10;1.00
16198;DHT22;8206;51.440;6.914;2023-08-21T04:41:09;18.20;1.00
16198;DHT22;8206;51.440;6.914;2023-08-21T04:43:36;18.20;1.00
16198;DHT22;8206;51.440;6.914;2023-08-21T04:46:04;18.30;1.00
16198;DHT22;8206;51.440;6.914;2023-08-21T04:48:30;18.40;1.00
16198;DHT22;8206;51.440;6.914;2023-08-21T04:50:58;18.40;1.00
16198;DHT22;8206;51.440;6.914;2023-08-21T04:53:25;18.40;1.00
16198;DHT22;8206;51.440;6.914;2023-08-21T04:55:52;18.30;1.00
16198;DHT22;8206;51.440;6.914;2023-08-21T04:58:18;18.30;1.00
16198;DHT22;8206;51.440;6.914;2023-08-21T05:00:45;18.30;1.00
16198;DHT22;8206;51.440;6.914;2023-08-21T05:03:12;18.40;1.00
16198;DHT22;8206;51.440;6.914;2023-08-21T05:05:38;18.40;1.00
16198;DHT22;8206;51.440;6.914;2023-08-21T05:08:07;18.40;1.00
16198;DHT22;8206;51.440;6.914;2023-08-21T05:10:33;18.50;1.00
16198;DHT22;8206;51.440;6.914;2023-08-21T05:13:00;18.60;99.90
16198;DHT22;8206;51.440;6.914;2023-08-21T05:15:27;18.80;1.00
16198;DHT22;8206;51.440;6.914;2023-08-21T05:17:53;19.10;1.00
16198;DHT22;8206;51.440;6.914;2023-08-21T05:20:20;19.60;1.00
16198;DHT22;8206;51.440;6.914;2023-08-21T05:22:47;20.10;1.00
16198;DHT22;8206;51.440;6.914;2023-08-21T05:25:15;20.50;1.00
16198;DHT22;8206;51.440;6.914;2023-08-21T05:27:41;20.70;1.00
16198;DHT22;8206;51.440;6.914;2023-08-21T05:30:09;20.60;1.00
16198;DHT22;8206;51.440;6.914;2023-08-21T05:32:37;20.30;1.00
16198;DHT22;8206;51.440;6.914;2023-08-21T05:35:05;20.40;1.00
16198;DHT22;8206;51.440;6.914;2023-08-21T05:37:33;21.00;1.00
16198;DHT22;8206;51.440;6.914;2023-08-21T05:40:00;21.20;1.00
16198;DHT22;8206;51.440;6.914;2023-08-21T05:42:29;21.30;1.00
16198;DHT22;8206;51.440;6.914;2023-08-21T05:44:55;21.60;1.00
16198;DHT22;8206;51.440;6.914;2023-08-21T05:47:22;22.00;1.00
16198;DHT22;8206;51.440;6.914;2023-08-21T05:49:50;22.40;1.00
16198;DHT22;8206;51.440;6.914;2023-08-21T05:52:18;22.70;99.90
16198;DHT22;8206;51.440;6.914;2023-08-21T05:54:45;22.90;99.90
16198;DHT22;8206;51.440;6.914;2023-08-21T05:57:11;23.10;99.90
16198;DHT22;8206;51.440;6.914;2023-08-21T05:59:43;23.30;99.90
16198;DHT22;8206;51.440;6.914;2023-08-21T06:02:10;23.50;99.90
16198;DHT22;8206;51.440;6.914;2023-08-21T06:04:39;23.70;99.90
16198;DHT22;8206;51.440;6.914;2023-08-21T06:07:06;23.80;99.90
16198;DHT22;8206;51.440;6.914;2023-08-21T06:09:33;24.00;99.90
16198;DHT22;8206;51.440;6.914;2023-08-21T06:12:01;24.30;99.90
16198;DHT22;8206;51.440;6.914;2023-08-21T06:14:28;24.60;99.90
16198;DHT22;8206;51.440;6.914;2023-08-21T06:16:56;24.60;99.90
16198;DHT22;8206;51.440;6.914;2023-08-21T06:19:23;24.00;99.90
16198;DHT22;8206;51.440;6.914;2023-08-21T06:21:50;23.90;99.90
16198;DHT22;8206;51.440;6.914;2023-08-21T06:24:16;24.00;99.90
16198;DHT22;8206;51.440;6.914;2023-08-21T06:26:43;24.30;99.90
16198;DHT22;8206;51.440;6.914;2023-08-21T06:29:10;24.60;99.90
16198;DHT22;8206;51.440;6.914;2023-08-21T06:31:36;24.60;99.90
16198;DHT22;8206;51.440;6.914;2023-08-21T06:34:04;24.70;99.90
16198;DHT22;8206;51.440;6.914;2023-08-21T06:36:31;24.80;99.90
16198;DHT22;8206;51.440;6.914;2023-08-21T06:38:58;25.00;99.90
16198;DHT22;8206;51.440;6.914;2023-08-21T06:41:25;25.20;99.90
16198;DHT22;8206;51.440;6.914;2023-08-21T06:43:51;24.80;99.90
16198;DHT22;8206;51.440;6.914;2023-08-21T06:46:18;24.80;99.90
16198;DHT22;8206;51.440;6.914;2023-08-21T06:48:45;24.60;99.90
16198;DHT22;8206;51.440;6.914;2023-08-21T06:51:13;24.50;99.90
16198;DHT22;8206;51.440;6.914;2023-08-21T06:53:39;24.60;99.90
16198;DHT22;8206;51.440;6.914;2023-08-21T06:56:06;24.30;99.90
16198;DHT22;8206;51.440;6.914;2023-08-21T06:58:33;23.90;99.90
16198;DHT22;8206;51.440;6.914;2023-08-21T07:01:00;23.40;99.90
16198;DHT22;8206;51.440;6.914;2023-08-21T07:03:27;23.00;99.90
16198;DHT22;8206;51.440;6.914;2023-08-21T07:05:54;22.70;99.90
16198;DHT22;8206;51.440;6.914;2023-08-21T07:08:23;22.60;99.90
16198;DHT22;8206;51.440;6.914;2023-08-21T07:10:50;22.50;99.90
16198;DHT22;8206;51.440;6.914;2023-08-21T07:13:18;22.40;99.90
16198;DHT22;8206;51.440;6.914;2023-08-21T07:15:45;22.40;99.90
16198;DHT22;8206;51.440;6.914;2023-08-21T07:18:11;22.60;99.90
16198;DHT22;8206;51.440;6.914;2023-08-21T07:20:38;22.70;99.90
16198;DHT22;8206;51.440;6.914;2023-08-21T07:23:05;22.80;99.90
16198;DHT22;8206;51.440;6.914;2023-08-21T07:25:33;22.80;99.90
16198;DHT22;8206;51.440;6.914;2023-08-21T07:28:00;22.80;99.90
16198;DHT22;8206;51.440;6.914;2023-08-21T07:30:27;22.80;99.90
16198;DHT22;8206;51.440;6.914;2023-08-21T07:32:54;22.90;99.90
16198;DHT22;8206;51.440;6.914;2023-08-21T07:35:21;23.20;99.90
16198;DHT22;8206;51.440;6.914;2023-08-21T07:37:47;23.60;99.90
16198;DHT22;8206;51.440;6.914;2023-08-21T07:40:14;23.70;99.90
16198;DHT22;8206;51.440;6.914;2023-08-21T07:42:42;23.70;99.90
16198;DHT22;8206;51.440;6.914;2023-08-21T07:45:09;23.80;99.90
16198;DHT22;8206;51.440;6.914;2023-08-21T07:47:36;24.00;99.90
16198;DHT22;8206;51.440;6.914;2023-08-21T07:50:04;24.00;99.90
16198;DHT22;8206;51.440;6.914;2023-08-21T07:52:31;23.90;99.90
16198;DHT22;8206;51.440;6.914;2023-08-21T07:54:58;23.90;99.90
16198;DHT22;8206;51.440;6.914;2023-08-21T07:57:26;24.00;99.90
16198;DHT22;8206;51.440;6.914;2023-08-21T07:59:54;24.10;99.90
16198;DHT22;8206;51.440;6.914;2023-08-21T08:02:22;24.00;99.90
16198;DHT22;8206;51.440;6.914;2023-08-21T08:04:49;24.00;99.90
16198;DHT22;8206;51.440;6.914;2023-08-21T08:07:16;24.10;99.90
16198;DHT22;8206;51.440;6.914;2023-08-21T08:09:43;24.00;99.90
16198;DHT22;8206;51.440;6.914;2023-08-21T08:12:09;24.00;99.90
16198;DHT22;8206;51.440;6.914;2023-08-21T08:14:36;24.10;99.90
16198;DHT22;8206;51.440;6.914;2023-08-21T08:17:04;24.10;99.90
16198;DHT22;8206;51.440;6.914;2023-08-21T08:19:31;24.10;99.90
16198;DHT22;8206;51.440;6.914;2023-08-21T08:21:58;24.10;99.90
16198;DHT22;8206;51.440;6.914;2023-08-21T08:24:24;24.10;99.90
16198;DHT22;8206;51.440;6.914;2023-08-21T08:26:51;24.20;99.90
16198;DHT22;8206;51.440;6.914;2023-08-21T08:29:18;24.20;99.90
16198;DHT22;8206;51.440;6.914;2023-08-21T08:31:44;24.20;99.90
16198;DHT22;8206;51.440;6.914;2023-08-21T08:34:12;24.10;99.90
16198;DHT22;8206;51.440;6.914;2023-08-21T08:36:39;24.10;99.90
16198;DHT22;8206;51.440;6.914;2023-08-21T08:39:07;24.20;99.90
16198;DHT22;8206;51.440;6.914;2023-08-21T08:41:40;24.20;99.90
16198;DHT22;8206;51.440;6.914;2023-08-21T08:44:08;24.20;99.90
16198;DHT22;8206;51.440;6.914;2023-08-21T08:46:34;24.30;99.90
16198;DHT22;8206;51.440;6.914;2023-08-21T08:49:03;24.30;99.90
16198;DHT22;8206;51.440;6.914;2023-08-21T08:51:33;24.30;99.90
16198;DHT22;8206;51.440;6.914;2023-08-21T08:54:03;24.30;99.90
16198;DHT22;8206;51.440;6.914;2023-08-21T08:56:30;24.40;99.90
16198;DHT22;8206;51.440;6.914;2023-08-21T08:58:56;24.20;99.90
16198;DHT22;8206;51.440;6.914;2023-08-21T09:01:23;24.30;99.90
16198;DHT22;8206;51.440;6.914;2023-08-21T09:03:50;24.40;99.90
16198;DHT22;8206;51.440;6.914;2023-08-21T09:06:17;24.50;99.90
16198;DHT22;8206;51.440;6.914;2023-08-21T09:08:53;24.40;99.90
16198;DHT22;8206;51.440;6.914;2023-08-21T09:11:20;24.30;99.90
16198;DHT22;8206;51.440;6.914;2023-08-21T09:13:49;24.40;99.90
16198;DHT22;8206;51.440;6.914;2023-08-21T09:16:17;24.50;99.90
16198;DHT22;8206;51.440;6.914;2023-08-21T09:18:47;24.60;99.90
16198;DHT22;8206;51.440;6.914;2023-08-21T09:21:16;24.50;99.90
16198;DHT22;8206;51.440;6.914;2023-08-21T09:23:43;24.70;99.90
16198;DHT22;8206;51.440;6.914;2023-08-21T09:26:13;24.80;99.90
16198;DHT22;8206;51.440;6.914;2023-08-21T09:28:44;24.80;99.90
16198;DHT22;8206;51.440;6.914;2023-08-21T09:31:11;24.90;99.90
16198;DHT22;8206;51.440;6.914;2023-08-21T09:33:38;24.80;99.90
16198;DHT22;8206;51.440;6.914;2023-08-21T09:36:05;24.80;99.90
16198;DHT22;8206;51.440;6.914;2023-08-21T09:38:34;24.70;99.90
16198;DHT22;8206;51.440;6.914;2023-08-21T09:41:00;25.00;99.90
16198;DHT22;8206;51.440;6.914;2023-08-21T09:43:29;25.30;99.90
16198;DHT22;8206;51.440;6.914;2023-08-21T09:45:56;25.50;99.90
16198;DHT22;8206;51.440;6.914;2023-08-21T09:48:23;25.60;99.90
16198;DHT22;8206;51.440;6.914;2023-08-21T09:50:51;25.60;99.90
16198;DHT22;8206;51.440;6.914;2023-08-21T09:53:17;25.70;99.90
16198;DHT22;8206;51.440;6.914;2023-08-21T09:55:46;25.80;99.90
16198;DHT22;8206;51.440;6.914;2023-08-21T09:58:13;25.80;99.90
16198;DHT22;8206;51.440;6.914;2023-08-21T10:00:41;26.00;99.90
16198;DHT22;8206;51.440;6.914;2023-08-21T10:03:10;26.30;99.90
16198;DHT22;8206;51.440;6.914;2023-08-21T10:05:40;26.50;99.90
16198;DHT22;8206;51.440;6.914;2023-08-21T10:08:09;26.70;99.90
16198;DHT22;8206;51.440;6.914;2023-08-21T10:10:37;26.70;99.90
16198;DHT22;8206;51.440;6.914;2023-08-21T10:13:04;26.80;99.90
16198;DHT22;8206;51.440;6.914;2023-08-21T10:15:32;26.90;99.90
16198;DHT22;8206;51.440;6.914;2023-08-21T10:18:17;27.00;99.90
16198;DHT22;8206;51.440;6.914;2023-08-21T10:20:44;27.10;99.90
16198;DHT22;8206;51.440;6.914;2023-08-21T10:23:24;27.20;99.90
16198;DHT22;8206;51.440;6.914;2023-08-21T10:25:54;27.40;99.90
16198;DHT22;8206;51.440;6.914;2023-08-21T10:28:21;27.40;99.90
16198;DHT22;8206;51.440;6.914;2023-08-21T10:30:48;27.20;99.90
16198;DHT22;8206;51.440;6.914;2023-08-21T10:33:16;27.10;99.90
16198;DHT22;8206;51.440;6.914;2023-08-21T10:35:44;27.00;99.90
16198;DHT22;8206;51.440;6.914;2023-08-21T10:38:12;27.00;99.90
16198;DHT22;8206;51.440;6.914;2023-08-21T10:41:03;27.00;99.90
16198;DHT22;8206;51.440;6.914;2023-08-21T10:43:38;26.90;99.90
16198;DHT22;8206;51.440;6.914;2023-08-21T10:46:05;26.80;99.90
16198;DHT22;8206;51.440;6.914;2023-08-21T10:48:33;26.80;99.90
16198;DHT22;8206;51.440;6.914;2023-08-21T10:51:01;27.00;99.90
16198;DHT22;8206;51.440;6.914;2023-08-21T10:53:29;27.10;99.90
16198;DHT22;8206;51.440;6.914;2023-08-21T10:55:56;27.20;99.90
16198;DHT22;8206;51.440;6.914;2023-08-21T10:58:23;27.00;99.90
16198;DHT22;8206;51.440;6.914;2023-08-21T11:00:56;26.70;99.90
16198;DHT22;8206;51.440;6.914;2023-08-21T11:03:23;26.60;99.90
16198;DHT22;8206;51.440;6.914;2023-08-21T11:06:05;26.60;99.90
16198;DHT22;8206;51.440;6.914;2023-08-21T11:08:32;26.60;99.90
16198;DHT22;8206;51.440;6.914;2023-08-21T11:10:59;26.60;99.90
16198;DHT22;8206;51.440;6.914;2023-08-21T11:13:26;26.60;99.90
16198;DHT22;8206;51.440;6.914;2023-08-21T11:15:59;26.60;99.90
16198;DHT22;8206;51.440;6.914;2023-08-21T11:18:32;26.50;99.90
16198;DHT22;8206;51.440;6.914;2023-08-21T11:21:09;26.70;99.90
16198;DHT22;8206;51.440;6.914;2023-08-21T11:23:37;26.80;99.90
16198;DHT22;8206;51.440;6.914;2023-08-21T11:26:05;26.90;99.90
16198;DHT22;8206;51.440;6.914;2023-08-21T11:28:32;26.80;99.90
16198;DHT22;8206;51.440;6.914;2023-08-21T11:30:59;26.70;99.90
16198;DHT22;8206;51.440;6.914;2023-08-21T11:33:26;26.60;99.90
16198;DHT22;8206;51.440;6.914;2023-08-21T11:35:54;26.70;99.90
16198;DHT22;8206;51.440;6.914;2023-08-21T11:38:25;26.60;99.90
16198;DHT22;8206;51.440;6.914;2023-08-21T11:40:54;26.70;99.90
16198;DHT22;8206;51.440;6.914;2023-08-21T11:43:20;26.90;99.90
16198;DHT22;8206;51.440;6.914;2023-08-21T11:45:47;26.80;99.90
16198;DHT22;8206;51.440;6.914;2023-08-21T11:48:14;27.00;99.90
16198;DHT22;8206;51.440;6.914;2023-08-21T11:50:41;27.20;99.90
16198;DHT22;8206;51.440;6.914;2023-08-21T11:53:08;27.30;99.90
16198;DHT22;8206;51.440;6.914;2023-08-21T11:55:38;27.50;99.90
16198;DHT22;8206;51.440;6.914;2023-08-21T11:58:06;27.70;99.90
16198;DHT22;8206;51.440;6.914;2023-08-21T12:00:32;27.90;99.90
16198;DHT22;8206;51.440;6.914;2023-08-21T12:03:01;27.90;99.90
16198;DHT22;8206;51.440;6.914;2023-08-21T12:05:28;27.70;99.90
16198;DHT22;8206;51.440;6.914;2023-08-21T12:07:55;27.60;99.90
16198;DHT22;8206;51.440;6.914;2023-08-21T12:10:23;27.50;99.90
16198;DHT22;8206;51.440;6.914;2023-08-21T12:12:51;27.40;99.90
16198;DHT22;8206;51.440;6.914;2023-08-21T12:15:18;27.30;99.90
16198;DHT22;8206;51.440;6.914;2023-08-21T12:17:45;27.20;99.90
16198;DHT22;8206;51.440;6.914;2023-08-21T12:20:12;27.20;99.90
16198;DHT22;8206;51.440;6.914;2023-08-21T12:22:40;27.00;99.90
16198;DHT22;8206;51.440;6.914;2023-08-21T12:25:08;27.10;99.90
16198;DHT22;8206;51.440;6.914;2023-08-21T12:27:35;26.90;99.90
16198;DHT22;8206;51.440;6.914;2023-08-21T12:30:04;26.80;99.90
16198;DHT22;8206;51.440;6.914;2023-08-21T12:32:30;26.50;99.90
16198;DHT22;8206;51.440;6.914;2023-08-21T12:34:57;26.50;99.90
16198;DHT22;8206;51.440;6.914;2023-08-21T12:37:24;26.50;99.90
16198;DHT22;8206;51.440;6.914;2023-08-21T12:39:51;26.50;99.90
16198;DHT22;8206;51.440;6.914;2023-08-21T12:42:17;26.60;99.90
16198;DHT22;8206;51.440;6.914;2023-08-21T12:44:44;26.90;99.90
16198;DHT22;8206;51.440;6.914;2023-08-21T12:47:12;27.20;99.90
16198;DHT22;8206;51.440;6.914;2023-08-21T12:49:39;27.40;99.90
16198;DHT22;8206;51.440;6.914;2023-08-21T12:52:05;27.50;99.90
16198;DHT22;8206;51.440;6.914;2023-08-21T12:54:32;27.60;99.90
16198;DHT22;8206;51.440;6.914;2023-08-21T12:56:59;27.50;99.90
16198;DHT22;8206;51.440;6.914;2023-08-21T12:59:25;27.50;99.90
16198;DHT22;8206;51.440;6.914;2023-08-21T13:01:52;27.30;99.90
16198;DHT22;8206;51.440;6.914;2023-08-21T13:04:20;27.10;99.90
16198;DHT22;8206;51.440;6.914;2023-08-21T13:06:47;26.90;99.90
16198;DHT22;8206;51.440;6.914;2023-08-21T13:09:13;26.80;99.90
16198;DHT22;8206;51.440;6.914;2023-08-21T13:11:40;26.90;99.90
16198;DHT22;8206;51.440;6.914;2023-08-21T13:14:07;27.10;99.90
16198;DHT22;8206;51.440;6.914;2023-08-21T13:16:33;27.20;99.90
16198;DHT22;8206;51.440;6.914;2023-08-21T13:19:00;27.30;99.90
16198;DHT22;8206;51.440;6.914;2023-08-21T13:21:28;27.30;99.90
16198;DHT22;8206;51.440;6.914;2023-08-21T13:23:55;27.10;99.90
16198;DHT22;8206;51.440;6.914;2023-08-21T13:26:22;27.20;99.90
16198;DHT22;8206;51.440;6.914;2023-08-21T13:28:51;27.40;99.90
16198;DHT22;8206;51.440;6.914;2023-08-21T13:31:17;27.70;99.90
16198;DHT22;8206;51.440;6.914;2023-08-21T13:33:45;28.00;99.90
16198;DHT22;8206;51.440;6.914;2023-08-21T13:36:11;28.10;99.90
16198;DHT22;8206;51.440;6.914;2023-08-21T13:38:39;28.10;99.90
16198;DHT22;8206;51.440;6.914;2023-08-21T13:41:06;28.30;99.90
16198;DHT22;8206;51.440;6.914;2023-08-21T13:43:33;28.20;99.90
16198;DHT22;8206;51.440;6.914;2023-08-21T13:46:00;28.40;99.90
16198;DHT22;8206;51.440;6.914;2023-08-21T13:48:27;28.40;99.90
16198;DHT22;8206;51.440;6.914;2023-08-21T13:50:54;28.50;99.90
16198;DHT22;8206;51.440;6.914;2023-08-21T13:53:20;28.40;99.90
16198;DHT22;8206;51.440;6.914;2023-08-21T13:55:49;28.40;99.90
16198;DHT22;8206;51.440;6.914;2023-08-21T13:58:16;28.60;99.90
16198;DHT22;8206;51.440;6.914;2023-08-21T14:00:43;28.70;99.90
16198;DHT22;8206;51.440;6.914;2023-08-21T14:03:10;28.70;99.90
16198;DHT22;8206;51.440;6.914;2023-08-21T14:05:37;28.60;99.90
16198;DHT22;8206;51.440;6.914;2023-08-21T14:08:04;28.20;99.90
16198;DHT22;8206;51.440;6.914;2023-08-21T14:10:31;28.20;99.90
16198;DHT22;8206;51.440;6.914;2023-08-21T14:12:59;28.20;99.90
16198;DHT22;8206;51.440;6.914;2023-08-21T14:15:29;28.20;99.90
16198;DHT22;8206;51.440;6.914;2023-08-21T14:17:55;28.20;99.90
16198;DHT22;8206;51.440;6.914;2023-08-21T14:20:22;28.30;99.90
16198;DHT22;8206;51.440;6.914;2023-08-21T14:22:49;28.50;99.90
16198;DHT22;8206;51.440;6.914;2023-08-21T14:25:16;28.70;99.90
16198;DHT22;8206;51.440;6.914;2023-08-21T14:27:43;29.00;99.90
16198;DHT22;8206;51.440;6.914;2023-08-21T14:30:11;29.10;99.90
16198;DHT22;8206;51.440;6.914;2023-08-21T14:32:39;29.00;99.90
16198;DHT22;8206;51.440;6.914;2023-08-21T14:35:08;28.50;99.90
16198;DHT22;8206;51.440;6.914;2023-08-21T14:37:34;28.10;99.90
16198;DHT22;8206;51.440;6.914;2023-08-21T14:40:01;27.80;99.90
16198;DHT22;8206;51.440;6.914;2023-08-21T14:42:31;27.90;99.90
16198;DHT22;8206;51.440;6.914;2023-08-21T14:44:58;27.90;99.90
16198;DHT22;8206;51.440;6.914;2023-08-21T14:47:26;27.90;99.90
16198;DHT22;8206;51.440;6.914;2023-08-21T14:49:53;27.90;99.90
16198;DHT22;8206;51.440;6.914;2023-08-21T14:52:20;28.00;99.90
16198;DHT22;8206;51.440;6.914;2023-08-21T14:54:48;28.20;99.90
16198;DHT22;8206;51.440;6.914;2023-08-21T14:57:15;28.20;99.90
16198;DHT22;8206;51.440;6.914;2023-08-21T14:59:41;28.30;99.90
16198;DHT22;8206;51.440;6.914;2023-08-21T15:02:08;28.50;99.90
16198;DHT22;8206;51.440;6.914;2023-08-21T15:04:36;28.70;99.90
16198;DHT22;8206;51.440;6.914;2023-08-21T15:07:03;28.70;99.90
16198;DHT22;8206;51.440;6.914;2023-08-21T15:09:29;28.60;99.90
16198;DHT22;8206;51.440;6.914;2023-08-21T15:11:56;28.50;99.90
16198;DHT22;8206;51.440;6.914;2023-08-21T15:14:23;28.30;99.90
16198;DHT22;8206;51.440;6.914;2023-08-21T15:16:50;28.30;99.90
16198;DHT22;8206;51.440;6.914;2023-08-21T15:19:16;28.20;99.90
16198;DHT22;8206;51.440;6.914;2023-08-21T15:21:44;28.10;99.90
16198;DHT22;8206;51.440;6.914;2023-08-21T15:24:11;28.10;99.90
16198;DHT22;8206;51.440;6.914;2023-08-21T15:26:38;28.00;99.90
16198;DHT22;8206;51.440;6.914;2023-08-21T15:29:04;27.90;99.90
16198;DHT22;8206;51.440;6.914;2023-08-21T15:31:31;27.90;99.90
16198;DHT22;8206;51.440;6.914;2023-08-21T15:33:58;27.90;99.90
16198;DHT22;8206;51.440;6.914;2023-08-21T15:36:24;27.80;99.90
16198;DHT22;8206;51.440;6.914;2023-08-21T15:38:53;27.80;99.90
16198;DHT22;8206;51.440;6.914;2023-08-21T15:41:19;27.80;99.90
16198;DHT22;8206;51.440;6.914;2023-08-21T15:43:46;27.80;99.90
16198;DHT22;8206;51.440;6.914;2023-08-21T15:46:13;27.80;99.90
16198;DHT22;8206;51.440;6.914;2023-08-21T15:48:39;27.80;99.90
16198;DHT22;8206;51.440;6.914;2023-08-21T15:51:06;27.70;99.90
16198;DHT22;8206;51.440;6.914;2023-08-21T15:53:33;27.80;99.90